Terminal Aerodrome Forecast
Issued by NWS Tulsa, OK

Home | Current Version | Previous Version | Text Only | Print | Product List | Glossary On
Versions: 1 2 3 4 5 6 7 8 9 10 11 12 13 14 15
000
FTUS44 KTSA 032000 AAA
TAFTUL
TAF AMD
KTUL 032006Z 0320/0418 19014G20KT P6SM OVC018
     FM040100 31012G22KT P6SM OVC015
     FM040600 01013G22KT 3SM -FZRA OVC010
     FM041000 01013G22KT 3SM -FZRAPL OVC007=

USA.gov is the U.S. government's official web portal to all federal, state and local government web resources and services.